createdAt,value
2018-11-27T00:02:52.151Z,1.26
2018-11-27T00:13:11.749Z,1.19
2018-11-27T00:23:31.416Z,1.12
2018-11-27T00:33:51.285Z,1.04
2018-11-27T00:44:09.916Z,0.99
2018-11-27T00:54:28.614Z,0.96
2018-11-27T01:04:47.827Z,0.96
2018-11-27T01:15:08.654Z,0.95
2018-11-27T01:25:28.765Z,0.87
2018-11-27T01:35:48.938Z,0.78
2018-11-27T01:46:09.558Z,0.71
2018-11-27T01:56:28.879Z,0.78
2018-11-27T02:06:48.120Z,0.92
2018-11-27T02:17:06.758Z,0.93
2018-11-27T02:27:27.750Z,1.01
2018-11-27T02:37:50.164Z,0.97
2018-11-27T02:48:09.383Z,0.97
2018-11-27T02:58:28.192Z,0.88
2018-11-27T03:08:47.493Z,0.86
2018-11-27T03:19:06.009Z,0.83
2018-11-27T03:29:25.252Z,0.86
2018-11-27T03:39:43.960Z,0.92
2018-11-27T03:50:03.524Z,1.00
2018-11-27T04:00:31.016Z,1.08
2018-11-27T04:10:49.981Z,1.09
2018-11-27T04:21:08.680Z,1.09
2018-11-27T04:31:28.574Z,1.12
2018-11-27T04:41:47.507Z,1.03
2018-11-27T04:52:06.247Z,0.97
2018-11-27T05:02:26.415Z,1.02
2018-11-27T05:12:46.117Z,0.85
2018-11-27T05:23:05.659Z,0.98
2018-11-27T05:33:24.435Z,0.88
2018-11-27T05:43:46.117Z,0.92
2018-11-27T05:54:03.356Z,0.89
2018-11-27T06:04:25.047Z,0.98
2018-11-27T06:14:46.408Z,0.93
2018-11-27T06:25:17.200Z,0.91
2018-11-27T06:35:40.726Z,0.84
2018-11-27T06:46:00.951Z,0.91
2018-11-27T06:56:21.551Z,0.97
2018-11-27T07:06:45.253Z,0.94
2018-11-27T07:17:03.998Z,0.98
2018-11-27T07:27:25.733Z,1.10
2018-11-27T07:37:45.535Z,1.05
2018-11-27T07:48:05.483Z,0.90
2018-11-27T07:58:26.590Z,0.99
2018-11-27T08:08:46.929Z,1.11
2018-11-27T08:19:08.271Z,1.27
2018-11-27T08:30:08.265Z,1.27
2018-11-27T08:40:31.470Z,1.28
2018-11-27T08:50:50.410Z,1.35
2018-11-27T09:01:08.983Z,1.31
2018-11-27T09:11:27.548Z,1.37
2018-11-27T09:21:47.622Z,1.49
2018-11-27T09:32:08.386Z,1.42
2018-11-27T09:42:26.806Z,1.53
2018-11-27T09:52:45.498Z,1.38
2018-11-27T10:03:06.296Z,1.63
2018-11-27T21:10:52.363Z,-0.28
2018-11-27T21:21:11.239Z,-0.42
2018-11-27T21:31:29.824Z,-0.34
2018-11-27T21:41:48.368Z,-0.32
2018-11-27T21:52:07.450Z,-0.37
2018-11-27T22:02:26.062Z,-0.43
2018-11-27T22:12:48.110Z,-0.44
2018-11-27T22:23:09.594Z,-0.52
2018-11-27T22:33:28.538Z,-0.52
2018-11-27T22:43:49.037Z,-0.62
2018-11-27T22:54:07.725Z,-0.67
2018-11-27T23:04:28.186Z,-0.67
2018-11-27T23:14:47.173Z,-0.88
2018-11-27T23:25:07.582Z,-0.99
2018-11-27T23:35:26.654Z,-0.91
2018-11-27T23:45:45.373Z,-0.99
2018-11-27T23:56:04.066Z,-1.07
